Time;durP1;ratioP1;P1;durP2;ratioP2;P2;SDS_P1;SDS_P2;PMS_P1;PMS_P2;Temp;Humidity;BMP_temperature;BMP_pressure;BME280_temperature;BME280_humidity;BME280_pressure;Samples;Min_cycle;Max_cycle;Signal;HPM_P1;HPM_P2
2022/01/10 13:38:12;;;;;;;16.88;10.52;;;;;;;-8.34;78.61;102786.66;5069148;27;1854902;-64
2022/01/10 13:40:40;;;;;;;14.43;10.13;;;;;;;-8.21;78.46;102799.59;5109758;28;20047;-63
2022/01/10 13:43:07;;;;;;;15.13;10.05;;;;;;;-8.22;78.32;102810.78;5109622;28;20035;-65
2022/01/10 13:45:57;;;;;;;20.35;12.48;;;;;;;-8.21;78.66;102806.47;5109377;28;20061;-63
2022/01/10 13:48:38;;;;;;;16.30;9.90;;;;;;;-8.09;78.63;102808.25;5109483;28;20031;-65
2022/01/10 13:51:11;;;;;;;13.50;9.38;;;;;;;-7.96;77.80;102805.72;5109294;28;20439;-64
2022/01/10 13:53:43;;;;;;;15.82;10.23;;;;;;;-7.92;77.48;102815.22;5108003;28;20039;-67
2022/01/10 13:56:19;;;;;;;13.80;8.98;;;;;;;-8.09;77.10;102783.28;5109350;28;20046;-71
2022/01/10 13:59:02;;;;;;;13.13;9.38;;;;;;;-7.94;78.11;102813.47;5109225;28;20124;-69
2022/01/10 14:01:41;;;;;;;16.50;10.55;;;;;;;-7.81;77.65;102829.06;5109194;28;20067;-70
2022/01/10 14:04:34;;;;;;;16.25;9.98;;;;;;;-7.70;77.47;102834.25;5109211;28;20071;-64
2022/01/10 14:07:05;;;;;;;13.95;9.90;;;;;;;-7.77;76.29;102836.81;5109463;28;20035;-66
2022/01/10 14:09:33;;;;;;;14.50;10.23;;;;;;;-7.90;76.76;102841.94;5109282;28;20386;-63
2022/01/10 14:12:05;;;;;;;14.95;10.13;;;;;;;-8.13;76.75;102812.53;5109267;28;20031;-63
2022/01/10 14:14:31;;;;;;;16.00;12.30;;;;;;;-8.08;76.30;102849.66;5109466;28;20036;-71
2022/01/10 14:16:57;;;;;;;14.47;9.20;;;;;;;-8.17;77.12;102845.28;5113316;28;20032;-75
2022/01/10 14:19:25;;;;;;;;;;;;;;;-8.03;77.40;102841.91;5112229;28;20470;-72
2022/01/10 14:21:52;;;;;;;17.63;10.47;;;;;;;-8.13;76.54;102848.72;5110810;28;20026;-67
2022/01/10 14:24:19;;;;;;;19.25;11.75;;;;;;;-8.28;77.99;102830.59;5109237;28;20127;-68
2022/01/10 14:26:45;;;;;;;19.95;11.77;;;;;;;-8.16;77.02;102861.66;5108890;28;20054;-65
2022/01/10 14:29:11;;;;;;;18.83;11.65;;;;;;;-8.25;77.22;102861.63;5108826;28;21042;-66
2022/01/10 14:31:38;;;;;;;14.90;10.53;;;;;;;-8.33;77.52;102859.00;5108655;28;20040;-65
2022/01/10 14:34:03;;;;;;;14.60;9.30;;;;;;;-8.32;77.20;102877.94;5107554;28;20348;-65
2022/01/10 14:36:33;;;;;;;18.50;9.97;;;;;;;-8.36;77.43;102884.00;5107294;28;20147;-67
2022/01/10 14:38:59;;;;;;;15.77;10.27;;;;;;;-8.32;77.41;102888.28;5107685;28;20047;-65
2022/01/10 14:41:27;;;;;;;14.50;10.07;;;;;;;-8.36;77.58;102884.00;5107735;28;20051;-68
2022/01/10 14:43:53;;;;;;;13.10;11.00;;;;;;;-8.18;76.92;102904.72;5108719;28;20058;-65
2022/01/10 14:46:19;;;;;;;14.65;9.20;;;;;;;-8.18;76.89;102900.41;5108466;28;20128;-65
2022/01/10 14:48:45;;;;;;;15.30;10.60;;;;;;;-8.17;76.79;102906.47;5098823;28;20130;-64
2022/01/10 14:51:11;;;;;;;12.60;8.77;;;;;;;-8.22;75.77;102910.75;5093543;28;20270;-67
2022/01/10 14:53:41;;;;;;;14.35;9.07;;;;;;;-8.33;76.55;102922.78;5094560;28;20474;-65
2022/01/10 14:56:10;;;;;;;15.25;9.25;;;;;;;-8.53;76.28;102892.50;5094541;28;20039;-68
2022/01/10 14:58:36;;;;;;;11.90;10.23;;;;;;;-8.44;76.69;102908.03;5094806;28;20039;-66
2022/01/10 15:01:02;;;;;;;16.13;11.23;;;;;;;-9.10;77.05;102799.97;5094916;28;20063;-67
2022/01/10 15:03:28;;;;;;;12.37;9.03;;;;;;;-8.44;76.81;102915.78;5094544;28;20056;-67
2022/01/10 15:05:55;;;;;;;11.63;8.88;;;;;;;-8.34;76.98;102918.47;5094740;28;20039;-68
2022/01/10 15:08:23;;;;;;;14.68;9.93;;;;;;;-8.29;76.87;102916.75;5094531;28;20081;-65
2022/01/10 15:10:49;;;;;;;15.95;9.68;;;;;;;-8.17;76.75;102932.31;5094559;28;20036;-66
2022/01/10 15:13:15;;;;;;;12.00;8.82;;;;;;;-8.31;76.72;102903.81;5093509;28;20051;-65
2022/01/10 15:15:43;;;;;;;12.37;8.77;;;;;;;-8.11;76.69;102942.69;5093147;28;20028;-68
2022/01/10 15:18:09;;;;;;;12.15;8.43;;;;;;;-8.15;76.13;102938.34;5093214;28;20029;-67
2022/01/10 15:20:35;;;;;;;14.20;9.52;;;;;;;-8.04;76.48;102948.78;5093131;28;20402;-67
2022/01/10 15:23:01;;;;;;;13.80;9.60;;;;;;;-8.13;76.04;102939.22;5094221;28;20155;-66
2022/01/10 15:25:27;;;;;;;11.90;8.95;;;;;;;-8.21;76.31;102951.25;5093953;28;20079;-66
2022/01/10 15:27:56;;;;;;;14.10;9.83;;;;;;;-8.18;76.74;102951.25;5093789;28;20032;-67
2022/01/10 15:30:24;;;;;;;14.45;8.35;;;;;;;-8.07;76.71;102967.72;5093988;28;20073;-69
2022/01/10 15:32:50;;;;;;;12.55;8.85;;;;;;;-8.04;76.60;102966.88;5093922;28;20399;-66
2022/01/10 15:35:16;;;;;;;13.80;10.18;;;;;;;-8.05;76.94;102978.06;5092552;28;20036;-68
2022/01/10 15:37:42;;;;;;;14.53;9.97;;;;;;;-8.08;76.43;102967.72;5108794;28;20513;-71
2022/01/10 15:40:09;;;;;;;12.53;9.37;;;;;;;-7.97;76.87;102964.31;5114529;28;20071;-68
2022/01/10 15:42:37;;;;;;;13.90;9.73;;;;;;;-7.91;76.49;102982.47;5114719;28;20506;-68
2022/01/10 15:45:05;;;;;;;8.45;6.70;;;;;;;-7.86;76.40;102985.94;5114194;28;20131;-69
2022/01/10 15:47:30;;;;;;;14.43;10.57;;;;;;;-7.93;76.04;102989.34;5114155;28;20035;-66
2022/01/10 15:49:55;;;;;;;11.13;8.00;;;;;;;-8.05;75.95;102978.94;5113963;28;20039;-66
2022/01/10 15:52:21;;;;;;;13.27;8.93;;;;;;;-8.07;76.05;102991.00;5114060;28;20106;-65
2022/01/10 15:54:47;;;;;;;9.73;7.63;;;;;;;-8.15;76.91;102990.06;5095704;28;20044;-69
2022/01/10 15:57:12;;;;;;;9.90;6.60;;;;;;;-8.15;76.47;102980.56;5095694;28;20036;-67
2022/01/10 15:59:39;;;;;;;15.80;8.67;;;;;;;-8.08;75.84;102994.44;5112412;28;20067;-70
2022/01/10 16:02:07;;;;;;;11.93;8.77;;;;;;;-8.01;76.19;103010.84;5113717;28;20508;-67
2022/01/10 16:04:35;;;;;;;10.55;7.82;;;;;;;-8.00;76.61;103016.03;5114108;28;21017;-71
2022/01/10 16:07:01;;;;;;;14.98;10.02;;;;;;;-7.85;76.57;103023.00;5113943;28;20035;-71
2022/01/10 16:09:27;;;;;;;12.50;7.57;;;;;;;-8.13;75.79;102970.25;5113809;28;20084;-71
2022/01/10 16:11:55;;;;;;;13.90;10.07;;;;;;;-8.06;75.94;102997.03;5113866;28;20550;-69
2022/01/10 16:14:20;;;;;;;16.20;9.57;;;;;;;-7.90;76.75;103032.47;5113864;28;20066;-71
2022/01/10 16:16:53;;;;;;;11.00;8.67;;;;;;;-8.00;76.19;103018.63;5114212;28;20063;-75
2022/01/10 16:19:27;;;;;;;11.60;8.18;;;;;;;-8.18;76.92;102996.06;5101565;28;20051;-73
2022/01/10 16:21:52;;;;;;;13.40;9.15;;;;;;;-7.97;77.06;103038.47;5095893;28;20092;-70
2022/01/10 16:24:18;;;;;;;13.87;8.77;;;;;;;-8.04;76.15;103028.94;5095424;28;20077;-68
2022/01/10 16:26:43;;;;;;;11.40;9.43;;;;;;;-7.96;76.47;103048.81;5113885;28;20314;-70
2022/01/10 16:29:10;;;;;;;14.03;9.07;;;;;;;-7.91;76.36;103049.69;5113573;28;20043;-71
2022/01/10 16:31:37;;;;;;;12.45;8.57;;;;;;;-8.19;76.46;103009.00;5114267;28;20032;-71
2022/01/10 16:34:09;;;;;;;11.10;8.50;;;;;;;-8.01;76.42;103042.75;5115170;28;20474;-76
2022/01/10 16:36:37;;;;;;;8.98;7.32;;;;;;;-7.96;76.48;103041.06;5078938;28;20060;-74
2022/01/10 16:39:06;;;;;;;10.20;7.38;;;;;;;-7.83;76.45;103054.91;5096182;28;20035;-73
2022/01/10 16:41:31;;;;;;;12.32;7.10;;;;;;;-7.82;75.70;103060.09;5113926;28;20075;-72
2022/01/10 16:43:58;;;;;;;11.27;7.45;;;;;;;-7.90;75.87;103058.31;5113841;28;20043;-67
2022/01/10 16:46:23;;;;;;;12.17;8.50;;;;;;;-7.97;76.97;103054.84;5116624;28;20490;-74
2022/01/10 16:48:48;;;;;;;12.37;7.80;;;;;;;-7.98;76.82;103045.34;5122549;28;20494;-70
2022/01/10 16:51:14;;;;;;;10.87;8.37;;;;;;;-7.96;76.34;103055.72;5115275;28;20070;-69
2022/01/10 16:53:40;;;;;;;9.87;6.97;;;;;;;-8.14;76.07;103035.72;5095467;28;20066;-72
2022/01/10 16:56:06;;;;;;;7.83;6.20;;;;;;;-7.92;76.36;103065.22;5094601;28;20036;-65
2022/01/10 16:58:32;;;;;;;9.35;6.15;;;;;;;-7.99;76.39;103050.50;5094549;28;20501;-76
2022/01/10 17:01:00;;;;;;;10.70;7.70;;;;;;;-7.88;76.28;103070.41;5112837;28;20066;-71
2022/01/10 17:03:26;;;;;;;10.63;6.70;;;;;;;-7.88;76.49;103070.41;5112800;28;20035;-68
2022/01/10 17:05:51;;;;;;;8.77;7.30;;;;;;;-7.76;75.99;103081.72;5112182;28;20043;-65
2022/01/10 17:08:21;;;;;;;8.00;6.60;;;;;;;-7.72;75.95;103084.34;5112336;28;20042;-64
2022/01/10 17:10:54;;;;;;;9.23;7.22;;;;;;;-7.71;76.26;103077.44;5076816;28;20037;-65
2022/01/10 17:13:20;;;;;;;7.95;6.20;;;;;;;-7.75;75.37;103092.06;5112422;28;20036;-64
2022/01/10 17:15:46;;;;;;;7.93;7.18;;;;;;;-7.88;76.37;103074.72;5093882;28;20123;-65
2022/01/10 17:18:12;;;;;;;9.10;7.87;;;;;;;-7.85;76.08;103075.59;5113000;28;20123;-66
2022/01/10 17:20:38;;;;;;;11.73;6.47;;;;;;;-7.76;75.96;103084.31;5112202;28;20092;-65
2022/01/10 17:23:04;;;;;;;9.20;7.00;;;;;;;-7.72;76.20;103091.22;5112396;28;20036;-64
2022/01/10 17:25:30;;;;;;;9.05;7.13;;;;;;;-7.65;75.90;103093.84;5112215;28;20031;-67
2022/01/10 17:27:56;;;;;;;10.07;6.88;;;;;;;-7.82;75.95;103080.78;5077471;28;20031;-68
2022/01/10 17:30:23;;;;;;;7.80;7.00;;;;;;;-7.86;76.30;103079.03;5112427;28;20521;-66
2022/01/10 17:32:50;;;;;;;11.38;7.20;;;;;;;-7.78;76.93;103078.25;5093989;28;20027;-66
2022/01/10 17:35:16;;;;;;;10.68;6.10;;;;;;;-7.53;76.46;103093.06;5112879;28;20044;-66
2022/01/10 17:37:42;;;;;;;10.55;7.95;;;;;;;-7.50;75.75;103077.56;5112043;28;20112;-65
2022/01/10 17:40:09;;;;;;;8.38;7.28;;;;;;;-7.41;75.51;103093.16;5112417;28;20495;-66
2022/01/10 17:42:37;;;;;;;11.77;7.28;;;;;;;-7.70;76.07;103058.47;5112806;28;20073;-65
2022/01/10 17:45:07;;;;;;;11.35;7.93;;;;;;;-7.63;75.65;103099.91;5112120;28;20036;-68
2022/01/10 17:47:33;;;;;;;7.90;6.10;;;;;;;-7.74;75.34;103098.13;5112491;28;20090;-67
2022/01/10 17:50:04;;;;;;;9.48;7.30;;;;;;;-7.78;76.28;103092.06;5093842;28;20067;-68
2022/01/10 17:52:42;;;;;;;8.38;6.63;;;;;;;-7.73;75.64;103105.03;5112340;28;20480;-68
2022/01/10 17:55:11;;;;;;;9.02;6.95;;;;;;;-7.72;75.28;103107.63;5112099;28;20031;-66
2022/01/10 17:57:37;;;;;;;10.43;6.90;;;;;;;-7.65;76.20;103118.88;5112199;28;20043;-67
2022/01/10 18:00:08;;;;;;;9.70;6.65;;;;;;;-7.69;75.48;103119.72;5112150;28;20032;-67
2022/01/10 18:02:37;;;;;;;9.75;7.00;;;;;;;-7.76;75.48;103115.34;5112281;28;20043;-68
2022/01/10 18:05:03;;;;;;;8.00;5.78;;;;;;;-7.78;75.51;103111.88;5112261;28;20036;-69
2022/01/10 18:07:32;;;;;;;9.73;6.45;;;;;;;-7.75;74.72;103111.91;5112332;28;20031;-73
2022/01/10 18:09:57;;;;;;;8.20;6.03;;;;;;;-7.73;74.68;103121.41;5093861;28;20035;-63
2022/01/10 18:12:23;;;;;;;8.83;6.87;;;;;;;-7.64;74.48;103146.47;5093035;28;20076;-71
2022/01/10 18:14:48;;;;;;;11.50;6.27;;;;;;;-7.85;74.79;103136.81;5111700;28;20042;-68
2022/01/10 18:17:14;;;;;;;9.97;6.63;;;;;;;-8.06;75.46;103144.41;5110901;28;20032;-71
2022/01/10 18:19:40;;;;;;;9.13;7.83;;;;;;;-8.09;75.83;103146.94;5093057;28;20031;-69
2022/01/10 18:22:06;;;;;;;9.90;7.73;;;;;;;-8.11;75.80;103150.38;5093577;28;20035;-71
2022/01/10 18:24:32;;;;;;;10.95;6.55;;;;;;;-7.99;76.41;103165.16;5096539;28;20027;-71
2022/01/10 18:26:58;;;;;;;10.40;7.28;;;;;;;-7.96;76.14;103154.84;5115457;28;20128;-70
2022/01/10 18:29:27;;;;;;;11.67;7.90;;;;;;;-7.89;76.31;103166.09;5080429;28;20089;-70
2022/01/10 18:31:54;;;;;;;11.27;7.78;;;;;;;-7.90;75.39;103175.59;5115658;28;20032;-71
2022/01/10 18:34:20;;;;;;;9.30;6.93;;;;;;;-7.79;75.89;103182.59;5097380;28;20043;-69
2022/01/10 18:39:37;;;;;;;7.25;6.53;;;;;;;-7.76;74.86;103180.91;5096759;28;20040;-73
2022/01/10 18:42:03;;;;;;;8.38;6.25;;;;;;;-8.03;74.74;103159.97;5080244;28;20112;-72
2022/01/10 18:44:29;;;;;;;12.77;7.23;;;;;;;-8.31;75.36;103157.09;5080231;28;20513;-70
2022/01/10 18:46:55;;;;;;;8.43;7.03;;;;;;;-8.11;75.97;103191.75;5096773;28;20460;-71
2022/01/10 18:49:20;;;;;;;14.13;7.57;;;;;;;-8.05;75.97;103188.38;5097299;28;20032;-70
2022/01/10 18:51:45;;;;;;;12.53;7.23;;;;;;;-8.01;75.63;103191.88;5096724;28;20134;-70
2022/01/10 18:54:11;;;;;;;8.53;6.27;;;;;;;-7.95;75.13;103197.97;5096257;28;20039;-70
2022/01/10 18:56:36;;;;;;;15.30;7.50;;;;;;;-7.93;75.14;103204.00;5097057;28;20039;-72
2022/01/10 18:59:10;;;;;;;9.57;6.63;;;;;;;-7.96;75.06;103193.63;5115848;28;20427;-72
2022/01/10 19:01:36;;;;;;;7.65;5.80;;;;;;;-8.22;74.56;103162.34;5079784;28;20144;-70
2022/01/10 19:04:02;;;;;;;8.88;5.90;;;;;;;-8.25;75.03;103162.31;5114717;28;20850;-70
2022/01/10 19:06:28;;;;;;;10.40;6.47;;;;;;;-8.12;75.60;103199.50;5115211;28;20037;-72
2022/01/10 19:08:54;;;;;;;12.37;7.70;;;;;;;-8.19;76.01;103187.38;5095565;28;20040;-72
2022/01/10 19:11:20;;;;;;;8.85;6.00;;;;;;;-8.53;74.50;103130.19;5114756;28;20057;-71
2022/01/10 19:13:46;;;;;;;9.27;6.05;;;;;;;-8.16;74.93;103185.69;5096608;28;20031;-71
2022/01/10 19:16:13;;;;;;;18.30;9.50;;;;;;;-7.98;75.41;103221.22;5079730;28;20046;-71
2022/01/10 19:18:39;;;;;;;10.10;7.35;;;;;;;-8.18;75.56;103195.13;5115989;28;20034;-71
2022/01/10 19:21:05;;;;;;;10.13;7.38;;;;;;;-8.07;75.28;103228.88;5095881;28;20048;-72
2022/01/10 19:23:30;;;;;;;9.77;6.60;;;;;;;-8.16;75.86;103214.13;5095809;28;20037;-71
2022/01/10 19:25:58;;;;;;;8.30;6.50;;;;;;;-8.05;75.12;103247.88;5079672;28;20035;-69
2022/01/10 19:28:24;;;;;;;9.45;6.38;;;;;;;-8.09;75.50;103240.03;5112694;28;20073;-68
2022/01/10 19:30:49;;;;;;;7.97;6.10;;;;;;;-8.15;75.43;103240.84;5113883;28;20028;-71
2022/01/10 19:33:15;;;;;;;15.07;7.53;;;;;;;-8.71;74.70;103167.84;5095720;28;20068;-71
2022/01/10 19:35:50;;;;;;;9.25;6.57;;;;;;;-8.58;75.39;103209.38;5096242;28;20028;-70
2022/01/10 19:38:27;;;;;;;7.07;6.38;;;;;;;-8.31;75.77;103244.13;5112806;28;20064;-71
2022/01/10 19:40:58;;;;;;;7.88;7.03;;;;;;;-8.25;75.55;103242.47;5078373;28;20036;-69
2022/01/10 19:43:33;;;;;;;13.05;6.50;;;;;;;-8.16;75.79;103254.63;5113910;28;20044;-72
2022/01/10 19:46:07;;;;;;;11.55;7.25;;;;;;;-8.35;75.74;103230.31;5095622;28;20498;-73
2022/01/10 19:48:40;;;;;;;11.00;6.20;;;;;;;-8.24;76.04;103256.25;5096851;28;20164;-73
2022/01/10 19:51:12;;;;;;;10.93;6.28;;;;;;;-8.28;76.63;103249.31;5079481;28;20062;-71
2022/01/10 19:53:40;;;;;;;7.35;5.70;;;;;;;-8.41;75.77;103250.03;5079369;28;20494;-71
2022/01/10 19:56:05;;;;;;;7.23;5.83;;;;;;;-8.16;76.14;103275.28;5078602;28;20038;-71
2022/01/10 19:58:32;;;;;;;9.37;6.80;;;;;;;-8.23;76.27;103273.50;5076974;28;20051;-73
2022/01/10 20:01:12;;;;;;;7.68;5.82;;;;;;;-8.35;76.70;103244.97;5113327;28;20510;-73
2022/01/10 20:03:38;;;;;;;6.88;6.18;;;;;;;-8.08;76.47;103289.19;5095358;28;20092;-71
2022/01/10 20:06:08;;;;;;;10.47;6.60;;;;;;;-8.04;76.27;103287.53;5113617;28;20669;-72
2022/01/10 20:08:34;;;;;;;9.20;6.78;;;;;;;-8.64;76.03;103190.34;5095157;28;20043;-70
2022/01/10 20:11:20;;;;;;;9.07;6.65;;;;;;;-8.44;76.34;103220.72;5094985;28;20031;-72
2022/01/10 20:13:45;;;;;;;11.50;6.63;;;;;;;-8.07;76.86;103288.34;5078326;28;20062;-71
2022/01/10 20:16:13;;;;;;;8.13;6.10;;;;;;;-8.22;76.31;103260.59;5113849;28;20506;-72
2022/01/10 20:18:41;;;;;;;11.30;6.85;;;;;;;-8.06;76.68;103284.91;5113722;28;20028;-73
2022/01/10 20:21:07;;;;;;;8.25;6.78;;;;;;;-8.11;76.54;103290.00;5077614;28;20080;-71
2022/01/10 20:23:33;;;;;;;11.07;7.03;;;;;;;-8.09;76.95;103295.22;5113229;28;20126;-71
2022/01/10 20:25:59;;;;;;;10.80;8.35;;;;;;;-8.06;75.93;103291.81;5112993;28;20038;-72
2022/01/10 20:28:28;;;;;;;8.83;6.27;;;;;;;-8.00;76.05;103308.25;5113258;28;20035;-72
2022/01/10 20:30:57;;;;;;;9.43;6.70;;;;;;;-8.11;76.46;103295.19;5095924;28;20032;-72
2022/01/10 20:33:22;;;;;;;;;;;;;;;-7.93;75.70;103325.56;5114218;28;20046;-71
2022/01/10 20:35:48;;;;;;;13.20;8.60;;;;;;;-7.97;76.41;103317.75;5113644;28;19916;-73
2022/01/10 20:38:16;;;;;;;10.17;8.17;;;;;;;-8.43;76.37;103235.38;5112921;28;20238;-72
2022/01/10 20:40:41;;;;;;;10.73;8.73;;;;;;;-7.83;76.01;103329.13;5113061;28;20131;-71
2022/01/10 20:43:08;;;;;;;13.53;7.37;;;;;;;-7.83;76.10;103331.69;5113222;28;20494;-71
2022/01/10 20:45:36;;;;;;;20.10;8.40;;;;;;;-7.91;75.52;103318.69;5112557;28;20089;-71
2022/01/10 20:48:03;;;;;;;12.82;7.78;;;;;;;-7.97;75.62;103308.28;5077918;28;20067;-71
2022/01/10 20:50:29;;;;;;;13.00;8.13;;;;;;;-7.94;75.70;103320.38;5112755;28;20088;-72
2022/01/10 20:52:55;;;;;;;14.47;8.20;;;;;;;-8.06;76.02;103308.19;5094646;28;20039;-72
2022/01/10 20:55:21;;;;;;;11.80;8.10;;;;;;;-7.97;76.19;103313.47;5113045;28;20031;-72
2022/01/10 20:57:53;;;;;;;12.70;7.88;;;;;;;-7.92;75.53;103305.75;5094489;28;20127;-69
2022/01/10 21:00:19;;;;;;;13.70;9.27;;;;;;;-7.85;75.84;103313.56;5113064;28;20425;-69
2022/01/10 21:02:45;;;;;;;9.13;7.85;;;;;;;-8.05;75.37;103291.81;5112481;28;20060;-72
2022/01/10 21:05:10;;;;;;;11.30;8.07;;;;;;;-7.87;75.99;103325.63;5094256;28;20031;-71
2022/01/10 21:07:39;;;;;;;14.17;8.33;;;;;;;-7.89;76.18;103317.00;5112851;28;20389;-72
2022/01/10 21:10:08;;;;;;;9.00;6.25;;;;;;;-7.74;76.28;103336.13;5094430;28;20036;-69
2022/01/10 21:12:33;;;;;;;12.63;9.63;;;;;;;-7.70;75.91;103332.72;5112673;28;20035;-71
2022/01/10 21:14:59;;;;;;;9.23;7.17;;;;;;;-7.72;75.67;103319.78;5112627;28;20508;-70
2022/01/10 21:17:24;;;;;;;7.53;6.00;;;;;;;-7.70;75.35;103327.53;5112406;28;20051;-71
2022/01/10 21:19:50;;;;;;;10.37;7.93;;;;;;;-7.69;75.39;103334.47;5077262;28;20062;-69
2022/01/10 21:22:16;;;;;;;6.90;5.53;;;;;;;-7.74;74.63;103331.81;5111767;28;20062;-70
2022/01/10 21:24:41;;;;;;;10.47;6.60;;;;;;;-7.74;75.50;103331.81;5112482;28;20028;-70
2022/01/10 21:27:12;;;;;;;7.33;6.20;;;;;;;-7.65;75.20;103325.88;5112734;28;20028;-72
2022/01/10 21:29:39;;;;;;;9.75;7.00;;;;;;;-7.56;74.57;103338.91;5077077;28;20483;-70
2022/01/10 21:32:05;;;;;;;7.10;6.40;;;;;;;-7.52;74.88;103348.41;5114264;28;20039;-71
2022/01/10 21:34:31;;;;;;;12.05;6.55;;;;;;;-7.55;74.69;103349.25;5112222;28;20188;-69
2022/01/10 21:36:58;;;;;;;7.37;5.93;;;;;;;-7.64;74.93;103330.19;5090746;28;20422;-70
2022/01/10 21:39:29;;;;;;;10.50;5.85;;;;;;;-7.56;74.61;103336.31;5092165;28;20040;-73
2022/01/10 21:41:54;;;;;;;8.20;5.75;;;;;;;-7.34;74.87;103350.34;5073345;28;20036;-71
2022/01/10 21:44:21;;;;;;;7.87;6.37;;;;;;;-7.47;74.17;103346.78;5092059;28;20035;-72
2022/01/10 21:46:46;;;;;;;7.53;6.10;;;;;;;-7.50;74.46;103347.63;5073460;28;20500;-69
2022/01/10 21:49:12;;;;;;;9.57;7.57;;;;;;;-7.57;74.70;103356.13;5091969;28;20154;-70
2022/01/10 21:51:38;;;;;;;10.13;6.87;;;;;;;-7.49;74.75;103366.59;5091884;28;20426;-72
2022/01/10 21:54:05;;;;;;;10.18;6.90;;;;;;;-7.44;74.47;103369.22;5073873;28;20043;-73
2022/01/10 21:56:31;;;;;;;8.60;6.13;;;;;;;-7.51;73.72;103369.19;5091869;28;20040;-71
2022/01/10 21:58:57;;;;;;;6.65;5.50;;;;;;;-8.02;74.30;103281.50;5092881;28;20379;-72
2022/01/10 22:01:23;;;;;;;11.57;6.87;;;;;;;-7.61;73.90;103348.34;5095652;28;20047;-73
2022/01/10 22:03:49;;;;;;;11.55;6.30;;;;;;;-7.76;74.45;103324.91;5094766;28;20032;-72
2022/01/10 22:06:15;;;;;;;10.23;5.80;;;;;;;-7.64;74.58;103348.31;5094489;28;20040;-72
2022/01/10 22:08:41;;;;;;;9.67;6.73;;;;;;;-7.61;74.10;103354.38;5094659;28;20043;-72
2022/01/10 22:11:08;;;;;;;11.60;6.73;;;;;;;-7.55;74.30;103364.78;5077463;28;20701;-72
2022/01/10 22:13:34;;;;;;;11.45;7.05;;;;;;;-7.60;74.80;103368.19;5077198;28;20285;-71
2022/01/10 22:16:03;;;;;;;11.70;7.10;;;;;;;-7.59;74.31;103372.50;5094083;28;20127;-71
2022/01/10 22:18:31;;;;;;;7.60;5.82;;;;;;;-7.50;74.01;103403.69;5077593;28;20047;-69
2022/01/10 22:21:02;;;;;;;6.95;6.22;;;;;;;-7.75;74.41;103373.22;5094502;28;20506;-71
2022/01/10 22:23:28;;;;;;;10.00;6.75;;;;;;;-7.81;74.55;103392.97;5094497;28;20119;-70
2022/01/10 22:25:54;;;;;;;10.00;6.63;;;;;;;-7.95;75.49;103381.59;5094779;28;20139;-70
2022/01/10 22:28:20;;;;;;;10.10;6.93;;;;;;;-7.79;75.59;103420.59;5079350;28;20036;-72
2022/01/10 22:30:46;;;;;;;9.32;6.95;;;;;;;-7.95;75.19;103398.81;5081357;28;20040;-71
2022/01/10 22:33:12;;;;;;;10.23;6.00;;;;;;;-8.24;75.01;103344.16;5096927;28;20093;-71
2022/01/10 22:35:38;;;;;;;7.57;6.13;;;;;;;-7.61;75.10;103431.16;5096309;28;20122;-70
2022/01/10 22:38:04;;;;;;;8.23;6.30;;;;;;;-7.76;74.37;103394.75;5095956;28;20294;-68
2022/01/10 22:40:29;;;;;;;6.60;5.77;;;;;;;-7.94;74.61;103390.22;5097406;28;20043;-70
2022/01/10 22:42:55;;;;;;;7.57;5.93;;;;;;;-7.77;75.09;103422.34;5098091;28;20039;-73
2022/01/10 22:45:21;;;;;;;8.10;5.60;;;;;;;-7.93;74.76;103403.16;5077509;28;20028;-72
2022/01/10 22:47:47;;;;;;;7.93;6.57;;;;;;;-7.93;75.24;103410.91;5096987;28;20128;-69
2022/01/10 22:50:13;;;;;;;9.07;6.33;;;;;;;-7.97;75.25;103410.88;5096465;28;20138;-73
2022/01/10 22:52:40;;;;;;;11.00;6.40;;;;;;;-8.09;75.71;103390.91;5080385;28;20062;-71
2022/01/10 22:55:07;;;;;;;11.80;6.95;;;;;;;-8.10;75.74;103394.31;5094609;28;20040;-69
2022/01/10 22:57:33;;;;;;;8.57;7.25;;;;;;;-8.15;75.41;103375.28;5094838;28;20032;-69
2022/01/10 22:59:59;;;;;;;7.77;6.77;;;;;;;-7.91;74.39;103414.41;5094153;28;20032;-73
2022/01/10 23:02:24;;;;;;;11.97;6.30;;;;;;;-8.49;75.33;103337.81;5094170;28;20036;-71
2022/01/10 23:04:50;;;;;;;11.33;6.43;;;;;;;-8.32;74.92;103381.97;5076937;28;20039;-70
2022/01/10 23:07:18;;;;;;;9.70;6.60;;;;;;;-8.38;74.73;103367.28;5076878;28;20033;-72
2022/01/10 23:09:44;;;;;;;7.65;5.53;;;;;;;-8.36;75.03;103375.03;5075635;28;20044;-71
2022/01/10 23:12:10;;;;;;;7.57;6.75;;;;;;;-8.32;75.31;103380.25;5076010;28;20368;-72
2022/01/10 23:14:36;;;;;;;11.37;5.70;;;;;;;-8.46;74.49;103369.72;5076649;28;20039;-71
2022/01/10 23:17:03;;;;;;;8.47;6.53;;;;;;;-8.14;75.51;103426.13;5076688;28;20036;-73
2022/01/10 23:19:28;;;;;;;11.10;6.68;;;;;;;-8.15;74.85;103427.00;5078212;28;20498;-72
2022/01/10 23:21:55;;;;;;;8.93;6.63;;;;;;;-8.37;75.30;103396.56;5076154;28;20046;-73
2022/01/10 23:24:21;;;;;;;10.20;6.25;;;;;;;-8.27;75.54;103416.50;5092689;28;20043;-70
2022/01/10 23:26:47;;;;;;;8.80;6.93;;;;;;;-8.09;75.49;103428.78;5093928;28;20407;-69
2022/01/10 23:29:12;;;;;;;7.97;7.17;;;;;;;-8.10;75.68;103435.69;5094234;28;20039;-70
2022/01/10 23:31:38;;;;;;;9.33;7.23;;;;;;;-8.14;75.72;103426.13;5093987;28;20091;-70
2022/01/10 23:34:06;;;;;;;9.03;7.13;;;;;;;-8.12;75.95;103443.41;5092771;28;20077;-71
2022/01/10 23:36:34;;;;;;;10.70;6.32;;;;;;;-8.28;75.38;103391.50;5075415;28;20064;-71
2022/01/10 23:39:04;;;;;;;10.35;7.50;;;;;;;-8.12;75.10;103442.53;5093954;28;20046;-72
2022/01/10 23:41:31;;;;;;;7.43;6.72;;;;;;;-8.27;75.42;103434.59;5075765;28;20036;-72
2022/01/10 23:43:56;;;;;;;19.88;12.15;;;;;;;-8.50;76.04;103437.72;5075775;28;20506;-73
2022/01/10 23:46:24;;;;;;;11.33;8.87;;;;;;;-8.52;76.25;103431.66;5076347;28;20067;-72
2022/01/10 23:48:52;;;;;;;16.17;11.93;;;;;;;-8.13;75.83;103484.75;5093249;28;20038;-73
2022/01/10 23:51:19;;;;;;;13.35;9.32;;;;;;;-8.40;75.36;103409.41;5092407;28;20097;-71
2022/01/10 23:53:48;;;;;;;10.20;8.90;;;;;;;-8.37;75.36;103425.88;5075624;28;20040;-71
2022/01/10 23:56:14;;;;;;;8.32;6.38;;;;;;;-8.33;75.24;103439.72;5075174;28;20032;-73
2022/01/10 23:58:40;;;;;;;12.90;7.37;;;;;;;-8.22;75.70;103482.03;5075457;28;20062;-71
